createdAt,value
2022-09-12T00:01:29.740Z,26.96
2022-09-12T00:04:13.038Z,26.98
2022-09-12T00:07:01.629Z,27.01
2022-09-12T00:09:43.937Z,26.93
2022-09-12T00:12:32.715Z,26.93
2022-09-12T00:15:21.700Z,26.89
2022-09-12T00:18:04.049Z,27.00
2022-09-12T00:20:54.710Z,27.03
2022-09-12T00:23:43.770Z,27.06
2022-09-12T00:26:31.983Z,27.04
2022-09-12T00:29:14.705Z,26.93
2022-09-12T00:32:03.073Z,27.02
2022-09-12T00:34:45.617Z,26.99
2022-09-12T00:37:35.043Z,27.04
2022-09-12T00:40:17.733Z,26.94
2022-09-12T00:43:07.206Z,27.02
2022-09-12T00:45:52.772Z,26.99
2022-09-12T00:48:57.771Z,26.87
2022-09-12T00:51:50.003Z,26.87
2022-09-12T00:54:38.707Z,26.88
2022-09-12T00:57:31.797Z,26.89
2022-09-12T01:00:21.014Z,27.02
2022-09-12T01:03:16.773Z,26.98
2022-09-12T01:06:16.051Z,26.95
2022-09-12T01:09:06.661Z,26.99
2022-09-12T01:11:50.171Z,26.90
2022-09-12T01:14:39.739Z,26.97
2022-09-12T01:17:23.075Z,26.92
2022-09-12T01:20:26.806Z,26.95
2022-09-12T01:23:43.769Z,27.03
2022-09-12T01:26:53.347Z,26.68
2022-09-12T01:30:01.780Z,26.93
2022-09-12T01:33:11.044Z,26.95
2022-09-12T01:36:31.798Z,26.64
2022-09-12T01:39:28.985Z,27.00
2022-09-12T01:42:39.725Z,27.12
2022-09-12T01:45:59.822Z,27.13
2022-09-12T01:49:00.620Z,26.90
2022-09-12T01:52:08.729Z,27.06
2022-09-12T01:55:09.868Z,27.39
2022-09-12T01:58:29.715Z,26.96
2022-09-12T02:01:24.934Z,27.23
2022-09-12T02:04:52.685Z,27.70
2022-09-12T02:08:08.793Z,27.87
2022-09-12T02:11:08.711Z,27.83
2022-09-12T02:14:14.710Z,27.65
2022-09-12T02:17:29.747Z,28.26
2022-09-12T02:20:46.892Z,28.14
2022-09-12T02:23:39.864Z,28.28
2022-09-12T02:26:43.667Z,28.13
2022-09-12T02:29:34.063Z,27.96
2022-09-12T02:32:34.370Z,28.18
2022-09-12T02:35:49.714Z,28.53
2022-09-12T02:38:45.839Z,28.44
2022-09-12T02:41:28.554Z,28.92
2022-09-12T02:44:18.678Z,29.09
2022-09-12T02:47:28.079Z,28.29
2022-09-12T02:50:24.717Z,28.16
2022-09-12T02:53:22.718Z,29.01
2022-09-12T02:56:23.885Z,28.42
2022-09-12T02:59:17.667Z,28.49
2022-09-12T03:02:24.131Z,29.33
2022-09-12T03:05:22.748Z,29.76
2022-09-12T03:08:23.188Z,29.57
2022-09-12T03:11:13.682Z,29.58
2022-09-12T03:14:46.043Z,29.97
2022-09-12T03:18:00.698Z,30.18
2022-09-12T03:21:29.024Z,30.02
2022-09-12T03:24:52.740Z,30.32
2022-09-12T03:27:49.057Z,29.85
2022-09-12T03:30:37.780Z,30.02
2022-09-12T03:33:25.053Z,30.28
2022-09-12T03:36:13.752Z,30.57
2022-09-12T03:38:56.058Z,30.22
2022-09-12T03:41:48.621Z,30.54
2022-09-12T03:44:32.075Z,30.74
2022-09-12T03:47:20.749Z,30.87
2022-09-12T03:50:03.138Z,30.40
2022-09-12T03:52:51.777Z,30.77
2022-09-12T03:55:48.592Z,30.56
2022-09-12T03:58:42.933Z,30.78
2022-09-12T04:01:27.137Z,31.06
2022-09-12T04:04:14.667Z,31.16
2022-09-12T04:06:57.840Z,31.28
2022-09-12T04:09:46.757Z,31.08
2022-09-12T04:12:35.711Z,31.68
2022-09-12T04:15:24.746Z,31.28
2022-09-12T04:18:08.058Z,30.89
2022-09-12T04:20:56.745Z,31.53
2022-09-12T04:23:41.212Z,31.86
2022-09-12T04:26:25.768Z,31.76
2022-09-12T04:29:08.940Z,32.35
2022-09-12T04:32:12.730Z,32.34
2022-09-12T04:34:56.094Z,32.66
2022-09-12T04:37:44.787Z,32.22
2022-09-12T04:40:27.076Z,33.40
2022-09-12T04:43:24.742Z,33.82
2022-09-12T04:46:12.445Z,33.80
2022-09-12T04:49:03.751Z,34.03
2022-09-12T04:51:54.696Z,33.60
2022-09-12T04:54:43.065Z,34.36
2022-09-12T04:57:25.662Z,34.28
2022-09-12T05:00:08.768Z,34.43
2022-09-12T05:02:58.756Z,34.95
2022-09-12T05:05:50.547Z,35.52
2022-09-12T05:08:53.763Z,34.94
2022-09-12T05:12:09.181Z,35.75
2022-09-12T05:15:20.791Z,35.14
2022-09-12T05:18:23.227Z,35.33
2022-09-12T05:21:35.771Z,35.46
2022-09-12T05:24:40.841Z,34.91
2022-09-12T05:27:51.788Z,35.65
2022-09-12T05:31:37.528Z,36.31
2022-09-12T05:34:41.918Z,35.82
2022-09-12T05:37:51.816Z,36.10
2022-09-12T05:41:00.772Z,36.43
2022-09-12T05:44:05.935Z,36.56
2022-09-12T05:47:14.786Z,36.60
2022-09-12T05:50:18.393Z,36.31
2022-09-12T05:53:35.788Z,36.60
2022-09-12T05:56:58.686Z,36.39
2022-09-12T06:00:08.593Z,36.34
2022-09-12T06:03:11.081Z,36.00
2022-09-12T06:06:22.782Z,35.89
2022-09-12T06:09:26.892Z,36.37
2022-09-12T06:12:37.705Z,36.49
2022-09-12T06:15:42.390Z,35.98
2022-09-12T06:19:00.158Z,36.63
2022-09-12T06:22:06.301Z,36.57
2022-09-12T06:25:16.796Z,36.12
2022-09-12T06:28:19.286Z,35.99
2022-09-12T06:31:36.398Z,36.40
2022-09-12T06:34:41.592Z,36.40
2022-09-12T06:37:53.746Z,36.35
2022-09-12T06:41:03.717Z,36.47
2022-09-12T06:44:15.757Z,35.66
2022-09-12T06:47:29.667Z,36.64
2022-09-12T06:50:38.714Z,36.38
2022-09-12T06:53:48.806Z,36.53
2022-09-12T06:56:57.112Z,36.41
2022-09-12T06:59:59.696Z,36.30
2022-09-12T07:03:02.034Z,36.41
2022-09-12T07:06:11.510Z,36.65
2022-09-12T07:09:24.617Z,36.66
2022-09-12T07:12:34.677Z,35.55
2022-09-12T07:15:38.449Z,36.23
2022-09-12T07:18:49.769Z,36.43
2022-09-12T07:21:58.015Z,36.64
2022-09-12T07:25:07.731Z,36.24
2022-09-12T07:28:11.226Z,36.41
2022-09-12T07:31:25.828Z,36.38
2022-09-12T07:34:37.539Z,35.85
2022-09-12T07:37:40.151Z,36.30
2022-09-12T07:40:50.784Z,36.63
2022-09-12T07:43:54.297Z,36.45
2022-09-12T07:47:04.693Z,36.58
2022-09-12T07:50:09.195Z,36.50
2022-09-12T07:53:20.713Z,36.44
2022-09-12T07:56:39.450Z,36.09
2022-09-12T07:59:53.527Z,36.24
2022-09-12T08:03:01.531Z,35.92
2022-09-12T08:06:19.640Z,36.46
2022-09-12T08:09:23.067Z,36.37
2022-09-12T08:12:32.623Z,36.26
2022-09-12T08:15:36.061Z,36.47
2022-09-12T08:18:46.723Z,36.21
2022-09-12T08:21:56.796Z,36.07
2022-09-12T08:24:59.926Z,36.56
2022-09-12T08:28:09.798Z,36.14
2022-09-12T08:31:18.096Z,36.05
2022-09-12T08:34:26.695Z,36.31
2022-09-12T08:37:32.861Z,36.12
2022-09-12T08:40:43.130Z,35.83
2022-09-12T08:44:16.879Z,36.04
2022-09-12T08:47:31.842Z,35.86
2022-09-12T08:50:35.123Z,36.07
2022-09-12T08:53:46.750Z,35.96
2022-09-12T08:56:58.797Z,35.81
2022-09-12T09:00:03.136Z,35.95
2022-09-12T09:03:15.756Z,35.82
2022-09-12T09:07:02.338Z,35.64
2022-09-12T09:10:36.680Z,35.92
2022-09-12T09:14:56.726Z,35.93
2022-09-12T09:18:25.851Z,35.57
2022-09-12T09:22:03.648Z,35.92
2022-09-12T09:25:25.712Z,35.79
2022-09-12T09:28:38.773Z,35.61
2022-09-12T09:31:54.431Z,35.39
2022-09-12T09:35:06.400Z,35.47
2022-09-12T09:38:27.191Z,35.68
2022-09-12T09:41:59.682Z,35.69
2022-09-12T09:45:08.105Z,35.60
2022-09-12T09:48:35.959Z,35.82
2022-09-12T09:51:47.248Z,35.30
2022-09-12T09:55:04.697Z,35.56
2022-09-12T09:58:22.668Z,35.51
2022-09-12T10:01:35.738Z,35.70
2022-09-12T10:04:50.800Z,35.72
2022-09-12T10:08:02.767Z,35.62
2022-09-12T10:11:10.228Z,35.50
2022-09-12T10:14:48.621Z,35.66
2022-09-12T10:18:03.685Z,35.56
2022-09-12T10:21:25.698Z,35.67
2022-09-12T10:24:43.163Z,35.65
2022-09-12T10:27:51.602Z,35.62
2022-09-12T10:31:03.968Z,35.45
2022-09-12T10:34:14.437Z,35.39
2022-09-12T10:37:52.197Z,35.24
2022-09-12T10:41:12.098Z,35.16
2022-09-12T10:44:33.744Z,35.37
2022-09-12T10:47:42.719Z,35.49
2022-09-12T10:50:58.704Z,35.44
2022-09-12T10:54:04.212Z,35.22
2022-09-12T10:57:34.717Z,35.55
2022-09-12T11:00:59.925Z,35.30
2022-09-12T11:04:26.296Z,35.43
2022-09-12T11:07:58.800Z,35.27
2022-09-12T11:11:44.731Z,35.23
2022-09-12T11:15:04.534Z,34.96
2022-09-12T11:18:27.004Z,34.88
2022-09-12T11:21:42.843Z,35.02
2022-09-12T11:25:24.048Z,34.80
2022-09-12T13:42:17.972Z,32.06
2022-09-12T13:45:57.802Z,32.22
2022-09-12T13:49:13.099Z,32.28
2022-09-12T13:52:40.993Z,32.23
2022-09-12T13:55:56.161Z,32.18
2022-09-12T13:59:08.999Z,32.06
2022-09-12T14:02:31.289Z,32.12
2022-09-12T14:05:43.327Z,32.22
2022-09-12T14:08:56.271Z,32.18
2022-09-12T14:12:07.634Z,32.13
2022-09-12T14:15:43.357Z,32.09
2022-09-12T14:18:56.122Z,32.05
2022-09-12T14:21:59.521Z,32.05
2022-09-12T14:25:11.228Z,31.92
2022-09-12T14:28:23.394Z,31.77
2022-09-12T14:31:49.231Z,31.79
2022-09-12T14:35:13.588Z,31.97
2022-09-12T14:38:47.930Z,31.99
2022-09-12T14:42:07.332Z,31.66
2022-09-12T14:45:40.136Z,31.81
2022-09-12T14:49:08.737Z,31.79
2022-09-12T14:52:35.952Z,31.91
2022-09-12T14:55:49.224Z,31.84
2022-09-12T14:59:00.775Z,31.93
2022-09-12T15:02:30.182Z,31.92
2022-09-12T15:05:42.802Z,31.87
2022-09-12T15:08:51.636Z,31.81
2022-09-12T15:11:55.192Z,31.78
2022-09-12T15:15:21.462Z,31.82
2022-09-12T15:18:25.922Z,31.79
2022-09-12T15:21:35.262Z,31.71
2022-09-12T15:24:48.282Z,31.67
2022-09-12T15:27:58.747Z,31.69
2022-09-12T15:31:16.803Z,31.65
2022-09-12T15:34:21.121Z,31.60
2022-09-12T15:37:35.410Z,31.53
2022-09-12T15:41:01.958Z,31.54
2022-09-12T15:44:13.535Z,31.49
2022-09-12T15:47:31.084Z,31.54
2022-09-12T15:50:49.894Z,31.41
2022-09-12T15:54:08.163Z,31.31
2022-09-12T15:57:17.172Z,31.33
2022-09-12T16:00:28.269Z,31.47
2022-09-12T16:03:33.391Z,31.42
2022-09-12T16:06:42.170Z,31.41
2022-09-12T16:09:46.747Z,31.35
2022-09-12T16:12:55.088Z,31.38
2022-09-12T16:16:01.297Z,31.47
2022-09-12T16:19:10.197Z,31.41
2022-09-12T16:22:21.283Z,31.38
2022-09-12T16:25:28.138Z,31.28
2022-09-12T16:28:32.287Z,31.30
2022-09-12T16:31:39.331Z,31.29
2022-09-12T16:34:49.195Z,31.23
2022-09-12T16:37:54.595Z,31.23
2022-09-12T16:41:04.347Z,31.26
2022-09-12T16:44:07.828Z,31.23
2022-09-12T16:47:18.274Z,31.19
2022-09-12T16:50:21.544Z,31.15
2022-09-12T16:53:30.349Z,31.11
2022-09-12T16:56:47.145Z,31.08
2022-09-12T16:59:57.250Z,31.08
2022-09-12T17:02:59.589Z,31.03
2022-09-12T17:06:22.265Z,31.01
2022-09-12T17:09:28.572Z,31.03
2022-09-12T17:12:37.203Z,31.00
2022-09-12T17:15:43.191Z,31.00
2022-09-12T17:18:54.285Z,31.00
2022-09-12T17:21:59.847Z,30.99
2022-09-12T17:25:11.792Z,31.00
2022-09-12T17:28:15.789Z,30.99
2022-09-12T17:31:26.309Z,30.96
2022-09-12T17:34:35.194Z,30.90
2022-09-12T17:37:44.952Z,30.92
2022-09-12T17:40:59.876Z,30.91
2022-09-12T17:44:10.270Z,30.91
2022-09-12T17:47:21.190Z,30.85
2022-09-12T17:50:33.456Z,30.85
2022-09-12T17:53:47.152Z,30.84
2022-09-12T17:56:58.050Z,30.77
2022-09-12T18:00:01.246Z,30.77
2022-09-12T18:03:14.283Z,30.78
2022-09-12T18:06:18.051Z,30.82
2022-09-12T18:09:31.109Z,30.73
2022-09-12T18:12:42.268Z,30.73
2022-09-12T18:15:44.874Z,30.72
2022-09-12T18:18:58.162Z,30.69
2022-09-12T18:22:00.702Z,30.61
2022-09-12T18:25:09.205Z,30.55
2022-09-12T18:28:14.104Z,30.57
2022-09-12T18:31:34.501Z,30.50
2022-09-12T18:34:36.578Z,30.50
2022-09-12T18:37:45.231Z,30.52
2022-09-12T18:40:47.796Z,30.53
2022-09-12T18:43:57.128Z,30.45
2022-09-12T18:47:07.154Z,30.34
2022-09-12T18:50:10.249Z,30.26
2022-09-12T18:53:03.152Z,30.31
2022-09-12T18:55:45.549Z,30.31
2022-09-12T18:58:34.550Z,30.24
2022-09-12T19:01:21.614Z,30.19
2022-09-12T19:04:13.654Z,30.17
2022-09-12T19:06:56.680Z,30.17
2022-09-12T19:09:45.227Z,30.20
2022-09-12T19:12:34.088Z,30.12
2022-09-12T19:15:31.253Z,30.06
2022-09-12T19:18:19.518Z,30.04
2022-09-12T19:21:02.271Z,29.96
2022-09-12T19:23:44.937Z,29.99
2022-09-12T19:26:35.250Z,29.97
2022-09-12T19:29:23.504Z,30.07
2022-09-12T19:32:06.181Z,29.84
2022-09-12T19:34:55.107Z,29.97
2022-09-12T19:37:44.147Z,29.88
2022-09-12T19:40:33.194Z,29.76
2022-09-12T19:43:16.504Z,29.75
2022-09-12T19:46:05.138Z,29.78
2022-09-12T19:48:47.766Z,29.74
2022-09-12T19:51:37.239Z,29.74
2022-09-12T19:54:20.520Z,29.73
2022-09-12T19:57:15.236Z,29.68
2022-09-12T19:59:57.485Z,29.76
2022-09-12T20:02:49.133Z,29.74
2022-09-12T20:05:42.509Z,29.73
2022-09-12T20:08:32.182Z,29.74
2022-09-12T20:11:17.513Z,29.76
2022-09-12T20:14:07.130Z,29.70
2022-09-12T20:16:56.209Z,29.68
2022-09-12T20:19:38.474Z,29.71
2022-09-12T20:22:27.180Z,29.62
2022-09-12T20:25:09.800Z,29.67
2022-09-12T20:28:00.352Z,29.71
2022-09-12T20:30:43.506Z,29.66
2022-09-12T20:33:32.172Z,29.65
2022-09-12T20:36:17.497Z,29.60
2022-09-12T20:39:09.087Z,29.66
2022-09-12T20:41:51.479Z,29.67
2022-09-12T20:44:40.134Z,29.66
2022-09-12T20:47:22.444Z,29.60
2022-09-12T20:50:11.065Z,29.62
2022-09-12T20:53:00.144Z,29.70
2022-09-12T20:55:42.130Z,29.56
2022-09-12T20:58:43.031Z,29.65
2022-09-12T21:01:35.168Z,29.61
2022-09-12T21:04:17.639Z,29.55
2022-09-12T21:07:06.142Z,29.53
2022-09-12T21:09:48.652Z,29.52
2022-09-12T21:12:37.074Z,29.53
2022-09-12T21:15:26.064Z,29.44
2022-09-12T21:18:15.228Z,29.41
2022-09-12T21:21:04.507Z,29.44
2022-09-12T21:23:53.165Z,29.41
2022-09-12T21:26:35.476Z,29.44
2022-09-12T21:29:24.194Z,29.44
2022-09-12T21:32:09.936Z,29.45
2022-09-12T21:35:01.078Z,29.52
2022-09-12T21:37:51.141Z,29.42
2022-09-12T21:40:33.328Z,29.40
2022-09-12T21:43:22.079Z,29.42
2022-09-12T21:46:12.212Z,29.38
2022-09-12T21:49:01.086Z,29.35
2022-09-12T21:51:50.133Z,29.38
2022-09-12T21:54:32.536Z,29.32
2022-09-12T21:57:21.440Z,29.39
2022-09-12T22:00:17.183Z,29.42
2022-09-12T22:03:05.953Z,29.46
2022-09-12T22:05:49.040Z,29.37
2022-09-12T22:08:40.070Z,29.36
2022-09-12T22:11:24.733Z,29.38
2022-09-12T22:14:13.161Z,29.35
2022-09-12T22:17:02.163Z,29.34
2022-09-12T22:19:44.365Z,29.31
2022-09-12T22:23:05.078Z,29.28
2022-09-12T22:26:01.163Z,29.32
2022-09-12T22:28:44.223Z,29.32
2022-09-12T22:31:34.217Z,29.24
2022-09-12T22:34:17.000Z,29.20
2022-09-12T22:37:06.155Z,29.24
2022-09-12T22:39:48.540Z,29.24
2022-09-12T22:42:39.141Z,29.24
2022-09-12T22:45:21.567Z,29.19
2022-09-12T22:48:10.160Z,29.09
2022-09-12T22:50:52.374Z,29.04
2022-09-12T22:53:41.062Z,29.06
2022-09-12T22:56:23.681Z,29.16
2022-09-12T22:59:19.103Z,29.10
2022-09-12T23:02:08.142Z,29.08
2022-09-12T23:04:57.158Z,29.15
2022-09-12T23:07:39.356Z,29.11
2022-09-12T23:10:28.137Z,29.10
2022-09-12T23:13:11.906Z,29.14
2022-09-12T23:16:04.221Z,29.12
2022-09-12T23:18:53.515Z,29.15
2022-09-12T23:21:38.187Z,29.08
2022-09-12T23:24:20.455Z,29.11
2022-09-12T23:27:09.072Z,29.07
2022-09-12T23:29:57.427Z,29.07
2022-09-12T23:32:40.255Z,29.04
2022-09-12T23:35:25.321Z,29.14
2022-09-12T23:38:14.705Z,29.21
2022-09-12T23:41:03.449Z,29.07
2022-09-12T23:43:46.079Z,29.04
2022-09-12T23:46:34.470Z,29.08
2022-09-12T23:49:17.150Z,28.97
2022-09-12T23:52:06.150Z,29.03
2022-09-12T23:54:48.420Z,29.06
2022-09-12T23:57:37.163Z,29.01
